createdAt,value
2018-01-19T00:02:25.618Z,5.70
2018-01-19T00:04:51.954Z,5.60
2018-01-19T00:07:18.225Z,5.50
2018-01-19T00:09:44.519Z,5.40
2018-01-19T00:12:11.547Z,5.50
2018-01-19T00:14:38.661Z,5.40
2018-01-19T00:17:04.940Z,5.40
2018-01-19T00:19:31.201Z,5.40
2018-01-19T00:21:57.478Z,5.50
2018-01-19T00:24:23.742Z,5.30
2018-01-19T00:26:50.781Z,5.50
2018-01-19T00:29:17.801Z,5.70
2018-01-19T00:31:44.080Z,5.30
2018-01-19T00:34:10.410Z,5.60
2018-01-19T00:36:36.669Z,5.30
2018-01-19T00:39:03.070Z,5.10
2018-01-19T00:41:30.066Z,5.00
2018-01-19T00:43:56.336Z,5.30
2018-01-19T00:46:22.644Z,5.20
2018-01-19T00:48:48.926Z,5.20
2018-01-19T00:51:15.234Z,5.20
2018-01-19T00:53:41.496Z,5.00
2018-01-19T00:56:07.746Z,4.90
2018-01-19T00:58:34.081Z,5.30
2018-01-19T01:01:00.340Z,4.90
2018-01-19T01:03:26.621Z,4.90
2018-01-19T01:05:52.901Z,4.90
2018-01-19T01:08:19.164Z,4.80
2018-01-19T01:10:45.458Z,5.20
2018-01-19T01:13:11.718Z,4.90
2018-01-19T01:15:38.035Z,4.80
2018-01-19T01:18:04.298Z,5.00
2018-01-19T01:20:34.036Z,4.80
2018-01-19T01:23:01.062Z,5.00
2018-01-19T01:25:28.085Z,5.00
2018-01-19T01:27:55.129Z,5.30
2018-01-19T01:30:21.397Z,4.50
2018-01-19T01:32:47.665Z,5.10
2018-01-19T01:35:13.969Z,5.00
2018-01-19T01:37:40.238Z,4.90
2018-01-19T01:40:06.527Z,4.90
2018-01-19T01:42:32.858Z,5.00
2018-01-19T01:44:59.123Z,5.20
2018-01-19T01:47:26.166Z,5.10
2018-01-19T01:49:53.165Z,5.20
2018-01-19T01:52:19.449Z,5.00
2018-01-19T01:54:45.741Z,5.00
2018-01-19T01:57:12.007Z,4.80
2018-01-19T01:59:38.284Z,4.90
2018-01-19T02:02:04.533Z,5.00
2018-01-19T02:04:30.829Z,5.00
2018-01-19T02:06:57.086Z,4.90
2018-01-19T02:09:23.348Z,4.80
2018-01-19T02:11:49.637Z,4.60
2018-01-19T02:14:15.920Z,5.00
2018-01-19T02:16:42.180Z,4.80
2018-01-19T02:19:08.464Z,5.00
2018-01-19T02:21:35.474Z,4.50
2018-01-19T02:24:01.766Z,4.70
2018-01-19T02:26:28.045Z,4.50
2018-01-19T02:28:55.087Z,4.90
2018-01-19T02:31:21.350Z,4.50
2018-01-19T02:33:47.639Z,4.90
2018-01-19T02:36:13.899Z,4.90
2018-01-19T02:38:40.193Z,5.00
2018-01-19T02:41:06.460Z,5.00
2018-01-19T02:43:32.719Z,4.90
2018-01-19T02:45:59.038Z,4.80
2018-01-19T02:48:25.339Z,4.90
2018-01-19T02:50:51.635Z,5.00
2018-01-19T02:53:17.902Z,4.70
2018-01-19T02:55:44.158Z,4.80
2018-01-19T02:58:10.439Z,4.70
2018-01-19T03:00:37.437Z,4.70
2018-01-19T03:03:03.725Z,4.70
2018-01-19T03:05:29.994Z,4.70
2018-01-19T03:07:56.275Z,4.50
2018-01-19T03:10:22.573Z,4.50
2018-01-19T03:12:48.846Z,4.50
2018-01-19T03:15:15.140Z,4.40
2018-01-19T03:17:41.398Z,4.60
2018-01-19T03:20:07.678Z,4.30
2018-01-19T03:22:33.984Z,4.30
2018-01-19T03:25:00.267Z,4.40
2018-01-19T03:27:26.578Z,4.30
2018-01-19T03:29:52.839Z,4.50
2018-01-19T03:32:19.854Z,4.20
2018-01-19T03:34:46.145Z,4.20
2018-01-19T03:37:12.448Z,4.30
2018-01-19T03:39:38.753Z,4.30
2018-01-19T03:42:04.998Z,4.10
2018-01-19T03:44:31.262Z,4.30
2018-01-19T03:46:58.286Z,4.20
2018-01-19T03:49:24.570Z,4.40
2018-01-19T03:51:50.879Z,3.80
2018-01-19T03:54:17.145Z,4.40
2018-01-19T03:56:44.148Z,4.40
2018-01-19T03:59:10.420Z,4.50
2018-01-19T04:01:37.418Z,4.50
2018-01-19T04:04:04.443Z,4.40
2018-01-19T04:06:30.697Z,4.20
2018-01-19T04:08:56.957Z,4.30
2018-01-19T04:11:23.281Z,4.40
2018-01-19T04:13:49.706Z,4.40
2018-01-19T04:16:16.744Z,4.50
2018-01-19T04:18:43.061Z,4.20
2018-01-19T04:21:10.081Z,4.30
2018-01-19T04:23:36.377Z,4.40
2018-01-19T04:26:02.713Z,4.10
2018-01-19T04:28:28.989Z,4.20
2018-01-19T04:30:55.253Z,4.10
2018-01-19T04:33:22.246Z,3.90
2018-01-19T04:35:48.545Z,4.30
2018-01-19T04:38:15.552Z,3.90
2018-01-19T04:40:41.886Z,3.90
2018-01-19T04:43:08.144Z,4.00
2018-01-19T04:45:34.431Z,4.00
2018-01-19T04:48:00.775Z,4.10
2018-01-19T04:50:27.090Z,4.00
2018-01-19T04:52:53.377Z,4.00
2018-01-19T04:55:19.647Z,4.00
2018-01-19T04:57:46.678Z,3.90
2018-01-19T05:00:16.174Z,3.80
2018-01-19T05:02:46.142Z,3.80
2018-01-19T05:05:14.823Z,4.00
2018-01-19T05:07:44.423Z,4.00
2018-01-19T05:10:11.441Z,3.90
2018-01-19T05:12:37.736Z,3.90
2018-01-19T05:15:04.009Z,3.90
2018-01-19T05:17:30.323Z,3.80
2018-01-19T05:19:56.578Z,3.80
2018-01-19T05:22:22.852Z,3.80
2018-01-19T05:24:49.892Z,3.80
2018-01-19T05:27:16.173Z,3.80
2018-01-19T05:29:42.458Z,4.30
2018-01-19T05:32:08.711Z,3.70
2018-01-19T05:34:35.720Z,4.00
2018-01-19T05:37:02.003Z,3.80
2018-01-19T05:39:28.256Z,3.80
2018-01-19T05:41:54.539Z,3.80
2018-01-19T05:44:20.819Z,3.70
2018-01-19T05:46:47.156Z,3.80
2018-01-19T05:49:13.542Z,3.50
2018-01-19T05:51:40.540Z,3.70
2018-01-19T05:54:06.870Z,3.80
2018-01-19T05:56:33.154Z,3.70
2018-01-19T05:58:59.470Z,3.60
2018-01-19T06:01:25.758Z,3.70
2018-01-19T06:03:52.061Z,3.90
2018-01-19T06:06:19.104Z,4.00
2018-01-19T06:08:45.356Z,3.80
2018-01-19T06:11:11.633Z,4.00
2018-01-19T06:13:37.934Z,4.00
2018-01-19T06:16:05.010Z,4.20
2018-01-19T06:18:31.298Z,3.60
2018-01-19T06:20:57.604Z,4.00
2018-01-19T06:23:23.872Z,4.00
2018-01-19T06:25:50.165Z,4.30
2018-01-19T06:28:16.494Z,4.10
2018-01-19T06:30:42.785Z,4.00
2018-01-19T06:33:09.161Z,4.00
2018-01-19T06:35:35.416Z,4.10
2018-01-19T06:38:01.681Z,4.00
2018-01-19T06:40:27.986Z,4.20
2018-01-19T06:42:54.344Z,3.80
2018-01-19T06:45:20.653Z,3.70
2018-01-19T06:47:47.712Z,3.90
2018-01-19T06:50:14.018Z,4.00
2018-01-19T06:52:40.314Z,3.50
2018-01-19T06:55:07.393Z,3.80
2018-01-19T06:57:33.672Z,3.70
2018-01-19T07:00:00.750Z,3.90
2018-01-19T07:02:27.027Z,4.00
2018-01-19T07:04:53.321Z,4.00
2018-01-19T07:07:20.324Z,3.80
2018-01-19T07:09:46.584Z,4.10
2018-01-19T07:12:12.882Z,3.90
2018-01-19T07:14:39.870Z,3.90
2018-01-19T07:17:06.174Z,3.70
2018-01-19T07:19:32.433Z,3.80
2018-01-19T07:21:58.689Z,3.90
2018-01-19T07:24:24.997Z,4.10
2018-01-19T07:26:51.304Z,4.00
2018-01-19T07:29:17.589Z,3.90
2018-01-19T07:31:43.876Z,4.00
2018-01-19T07:34:10.190Z,4.00
2018-01-19T07:36:36.485Z,4.10
2018-01-19T07:39:02.821Z,4.00
2018-01-19T07:41:29.110Z,4.00
2018-01-19T07:43:55.374Z,4.00
2018-01-19T07:46:21.689Z,4.30
2018-01-19T07:48:48.008Z,4.70
2018-01-19T07:51:14.315Z,4.50
2018-01-19T07:53:40.597Z,4.30
2018-01-19T07:56:07.277Z,4.30
2018-01-19T07:58:34.685Z,4.30
2018-01-19T08:01:01.002Z,4.30
2018-01-19T08:03:27.498Z,4.30
2018-01-19T08:05:53.793Z,4.50
2018-01-19T08:08:20.095Z,4.20
2018-01-19T08:10:47.392Z,4.20
2018-01-19T08:13:13.868Z,3.90
2018-01-19T08:15:40.143Z,3.80
2018-01-19T08:18:07.773Z,4.50
2018-01-19T08:20:34.237Z,4.30
2018-01-19T08:23:00.521Z,4.20
2018-01-19T08:25:27.636Z,4.30
2018-01-19T08:27:53.934Z,4.50
2018-01-19T08:30:20.254Z,4.40
2018-01-19T08:32:46.582Z,4.70
2018-01-19T08:35:12.862Z,4.30
2018-01-19T08:37:39.338Z,4.30
2018-01-19T08:40:05.610Z,4.70
2018-01-19T08:42:31.945Z,4.00
2018-01-19T08:44:58.209Z,4.40
2018-01-19T08:47:25.217Z,4.70
2018-01-19T08:49:51.556Z,5.40
2018-01-19T08:52:17.810Z,4.90
2018-01-19T08:54:44.099Z,5.30
2018-01-19T08:57:10.606Z,5.60
2018-01-19T08:59:37.632Z,5.60
2018-01-19T09:02:04.003Z,5.50
2018-01-19T09:04:30.578Z,5.70
2018-01-19T09:06:57.110Z,5.70
2018-01-19T09:09:24.304Z,6.10
2018-01-19T09:11:50.870Z,5.80
2018-01-19T09:14:17.666Z,5.20
2018-01-19T09:16:44.738Z,6.00
2018-01-19T09:19:11.621Z,5.70
2018-01-19T09:21:38.226Z,5.30
2018-01-19T09:24:04.497Z,5.80
2018-01-19T09:26:30.859Z,5.80
2018-01-19T09:28:57.207Z,5.90
2018-01-19T09:31:23.591Z,5.90
2018-01-19T09:33:49.881Z,6.20
2018-01-19T09:36:17.089Z,6.30
2018-01-19T09:38:43.386Z,6.80
2018-01-19T09:41:11.969Z,7.20
2018-01-19T09:43:38.372Z,7.00
2018-01-19T09:46:04.651Z,7.60
2018-01-19T09:48:33.474Z,8.10
2018-01-19T09:50:59.918Z,8.00
2018-01-19T09:53:26.328Z,8.40
2018-01-19T09:55:52.719Z,8.50
2018-01-19T09:58:19.829Z,9.00
2018-01-19T10:00:46.183Z,8.90
2018-01-19T10:03:13.302Z,8.40
2018-01-19T10:05:39.582Z,8.30
2018-01-19T10:08:05.979Z,8.10
2018-01-19T10:10:32.254Z,8.10
2018-01-19T10:12:58.735Z,8.00
2018-01-19T10:15:25.058Z,7.40
2018-01-19T10:17:51.346Z,7.60
2018-01-19T10:20:17.652Z,7.40
2018-01-19T10:22:43.931Z,7.20
2018-01-19T10:25:10.281Z,6.70
2018-01-19T10:27:36.636Z,6.70
2018-01-19T10:30:03.096Z,6.70
2018-01-19T10:32:29.440Z,6.40
2018-01-19T10:34:55.885Z,6.30
2018-01-19T10:37:22.149Z,6.10
2018-01-19T10:39:49.195Z,6.30
2018-01-19T10:42:15.485Z,6.20
2018-01-19T10:44:41.908Z,6.60
2018-01-19T10:47:08.371Z,7.10
2018-01-19T10:49:34.865Z,7.00
2018-01-19T10:52:01.974Z,7.50
2018-01-19T10:54:29.014Z,7.50
2018-01-19T10:56:55.291Z,7.60
2018-01-19T10:59:21.596Z,7.40
2018-01-19T11:01:47.883Z,7.10
2018-01-19T11:04:14.182Z,7.40
2018-01-19T11:06:41.207Z,7.10
2018-01-19T11:09:07.465Z,6.90
2018-01-19T11:11:33.953Z,7.20
2018-01-19T11:14:00.948Z,6.90
2018-01-19T11:16:27.324Z,6.80
2018-01-19T11:18:54.651Z,6.70
2018-01-19T11:21:21.806Z,7.10
2018-01-19T11:23:48.194Z,6.70
2018-01-19T11:26:15.520Z,6.80
2018-01-19T11:28:42.666Z,6.90
2018-01-19T11:31:08.991Z,6.80
2018-01-19T11:33:36.725Z,6.80
2018-01-19T11:36:03.792Z,6.80
2018-01-19T11:38:30.280Z,6.60
2018-01-19T11:40:57.445Z,6.60
2018-01-19T11:43:23.750Z,6.70
2018-01-19T11:45:50.685Z,7.10
2018-01-19T11:48:17.327Z,6.90
2018-01-19T11:50:44.161Z,7.00
2018-01-19T11:53:10.696Z,7.60
2018-01-19T11:55:37.070Z,7.00
2018-01-19T11:58:03.333Z,6.90
2018-01-19T12:00:29.706Z,6.90
2018-01-19T12:02:56.130Z,7.00
2018-01-19T12:05:23.275Z,6.90
2018-01-19T12:07:49.535Z,7.00
2018-01-19T12:10:15.831Z,7.20
2018-01-19T12:12:42.194Z,7.70
2018-01-19T12:15:09.234Z,9.20
2018-01-19T12:17:35.521Z,8.70
2018-01-19T12:20:01.806Z,10.10
2018-01-19T12:22:28.371Z,10.20
2018-01-19T12:24:55.434Z,9.80
2018-01-19T12:27:21.723Z,9.50
2018-01-19T12:29:48.045Z,9.30
2018-01-19T12:32:14.331Z,9.10
2018-01-19T12:34:40.638Z,9.00
2018-01-19T12:37:06.914Z,9.00
2018-01-19T12:39:33.428Z,8.90
2018-01-19T12:41:59.705Z,8.90
2018-01-19T12:44:25.989Z,9.00
2018-01-19T12:46:52.264Z,8.50
2018-01-19T12:49:18.543Z,8.70
2018-01-19T12:51:44.849Z,8.50
2018-01-19T12:54:11.249Z,7.70
2018-01-19T12:56:37.652Z,8.10
2018-01-19T12:59:03.950Z,8.00
2018-01-19T13:01:30.273Z,8.00
2018-01-19T13:03:56.641Z,8.00
2018-01-19T13:06:22.961Z,8.10
2018-01-19T13:08:49.814Z,7.90
2018-01-19T13:11:16.110Z,7.40
2018-01-19T13:13:43.211Z,7.40
2018-01-19T13:16:09.690Z,7.60
2018-01-19T13:18:36.046Z,7.60
2018-01-19T13:21:03.464Z,8.00
2018-01-19T13:23:29.888Z,7.50
2018-01-19T13:25:56.225Z,7.60
2018-01-19T13:28:22.580Z,7.50
2018-01-19T13:30:49.060Z,7.30
2018-01-19T13:33:15.495Z,7.20
2018-01-19T13:35:42.352Z,7.10
2018-01-19T13:38:09.956Z,7.30
2018-01-19T13:40:36.874Z,6.90
2018-01-19T13:43:11.638Z,6.90
2018-01-19T13:45:38.534Z,7.00
2018-01-19T13:48:10.985Z,6.80
2018-01-19T13:50:37.360Z,6.90
2018-01-19T13:53:04.471Z,7.20
2018-01-19T13:55:31.972Z,7.00
2018-01-19T13:57:58.286Z,7.00
2018-01-19T14:00:24.666Z,6.80
2018-01-19T14:02:51.399Z,7.00
2018-01-19T14:05:18.228Z,6.40
2018-01-19T14:07:45.288Z,6.80
2018-01-19T14:10:12.192Z,7.00
2018-01-19T14:12:38.550Z,6.80
2018-01-19T14:15:05.407Z,6.60
2018-01-19T14:17:32.482Z,6.60
2018-01-19T14:19:58.838Z,6.70
2018-01-19T14:22:25.758Z,6.70
2018-01-19T14:27:25.458Z,6.60
2018-01-19T14:29:51.778Z,6.50
2018-01-19T14:32:18.629Z,6.20
2018-01-19T14:34:45.112Z,6.50
2018-01-19T14:37:11.501Z,6.40
2018-01-19T14:39:37.822Z,6.50
2018-01-19T14:42:04.130Z,5.70
2018-01-19T14:44:30.453Z,6.10
2018-01-19T14:46:57.189Z,6.10
2018-01-19T14:49:23.605Z,6.00
2018-01-19T14:51:49.930Z,6.00
2018-01-19T14:54:16.332Z,6.00
2018-01-19T14:56:42.755Z,6.10
2018-01-19T14:59:09.101Z,5.90
2018-01-19T15:01:35.572Z,5.40
2018-01-19T15:04:01.947Z,5.60
2018-01-19T15:06:28.983Z,5.70
2018-01-19T15:08:55.329Z,5.70
2018-01-19T15:11:22.730Z,5.60
2018-01-19T15:13:49.177Z,5.60
2018-01-19T15:16:15.568Z,5.60
2018-01-19T15:18:42.072Z,5.60
2018-01-19T15:21:08.453Z,5.50
2018-01-19T15:23:34.984Z,5.70
2018-01-19T15:26:01.389Z,5.50
2018-01-19T15:28:27.931Z,5.60
2018-01-19T15:30:54.414Z,5.50
2018-01-19T15:33:21.862Z,5.70
2018-01-19T15:35:48.194Z,5.70
2018-01-19T15:38:15.966Z,5.50
2018-01-19T15:40:42.343Z,5.80
2018-01-19T15:43:08.963Z,5.50
2018-01-19T15:45:36.058Z,5.80
2018-01-19T15:48:02.454Z,5.10
2018-01-19T15:50:28.955Z,5.70
2018-01-19T15:52:56.002Z,5.80
2018-01-19T15:55:22.423Z,5.50
2018-01-19T15:57:48.750Z,5.10
2018-01-19T16:00:15.300Z,5.50
2018-01-19T16:02:41.650Z,4.80
2018-01-19T16:05:08.672Z,5.30
2018-01-19T16:07:35.031Z,5.20
2018-01-19T16:10:01.324Z,5.20
2018-01-19T16:12:28.337Z,4.80
2018-01-19T16:14:55.559Z,4.90
2018-01-19T16:17:22.039Z,4.90
2018-01-19T16:19:48.482Z,4.20
2018-01-19T16:22:14.757Z,5.00
2018-01-19T16:24:41.032Z,5.00
2018-01-19T16:27:07.383Z,4.80
2018-01-19T16:29:33.841Z,5.10
2018-01-19T16:32:00.146Z,4.90
2018-01-19T16:34:26.459Z,5.20
2018-01-19T16:36:52.859Z,4.90
2018-01-19T16:39:19.188Z,4.80
2018-01-19T16:41:45.436Z,4.80
2018-01-19T16:44:11.777Z,4.70
2018-01-19T16:46:38.079Z,4.60
2018-01-19T16:49:07.261Z,4.70
2018-01-19T16:51:31.607Z,4.60
2018-01-19T16:53:58.087Z,4.50
2018-01-19T16:56:24.404Z,4.40
2018-01-19T16:58:50.879Z,4.20
2018-01-19T17:01:17.172Z,4.40
2018-01-19T17:03:43.485Z,4.30
2018-01-19T17:06:10.597Z,4.30
2018-01-19T17:08:36.882Z,4.20
2018-01-19T17:11:03.178Z,4.00
2018-01-19T17:13:30.111Z,4.10
2018-01-19T17:15:56.387Z,4.00
2018-01-19T17:18:22.703Z,4.10
2018-01-19T17:20:49.038Z,4.10
2018-01-19T17:23:16.184Z,4.30
2018-01-19T17:25:43.263Z,4.20
2018-01-19T17:28:10.381Z,4.00
2018-01-19T17:30:37.392Z,4.00
2018-01-19T17:33:03.911Z,4.00
2018-01-19T17:35:30.224Z,3.70
2018-01-19T17:37:56.598Z,3.80
2018-01-19T17:40:23.709Z,3.70
2018-01-19T17:42:50.046Z,3.90
2018-01-19T17:45:16.347Z,3.80
2018-01-19T17:47:42.680Z,3.90
2018-01-19T17:50:08.939Z,4.00
2018-01-19T17:52:35.213Z,3.90
2018-01-19T17:55:01.489Z,3.90
2018-01-19T17:57:31.395Z,3.80
2018-01-19T17:59:58.346Z,3.80
2018-01-19T18:02:24.630Z,3.70
2018-01-19T18:04:50.897Z,3.70
2018-01-19T18:07:18.729Z,3.80
2018-01-19T18:09:45.011Z,3.50
2018-01-19T18:12:11.307Z,3.80
2018-01-19T18:14:38.404Z,3.80
2018-01-19T18:17:04.670Z,3.60
2018-01-19T18:19:31.381Z,3.60
2018-01-19T18:21:58.431Z,3.70
2018-01-19T18:24:24.722Z,3.60
2018-01-19T18:26:50.984Z,3.60
2018-01-19T18:29:17.994Z,3.50
2018-01-19T18:31:44.282Z,3.30
2018-01-19T18:34:10.595Z,3.40
2018-01-19T18:36:36.913Z,3.60
2018-01-19T18:39:03.281Z,3.50
2018-01-19T18:41:30.500Z,3.50
2018-01-19T18:43:59.419Z,3.50
2018-01-19T18:46:27.158Z,3.40
2018-01-19T18:48:55.631Z,3.50
2018-01-19T18:51:22.995Z,3.20
2018-01-19T18:53:49.527Z,3.60
2018-01-19T18:56:19.757Z,3.30
2018-01-19T18:58:47.080Z,3.20
2018-01-19T19:01:15.333Z,3.40
2018-01-19T19:03:42.944Z,3.80
2018-01-19T19:06:10.175Z,3.30
2018-01-19T19:08:36.469Z,3.20
2018-01-19T19:11:03.495Z,3.50
2018-01-19T19:13:32.129Z,3.40
2018-01-19T19:15:58.485Z,3.40
2018-01-19T19:18:25.477Z,3.20
2018-01-19T19:20:52.545Z,3.20
2018-01-19T19:23:18.817Z,3.30
2018-01-19T19:25:45.127Z,3.20
2018-01-19T19:28:12.270Z,3.20
2018-01-19T19:30:41.570Z,2.90
2018-01-19T19:33:08.969Z,3.00
2018-01-19T19:35:36.453Z,3.00
2018-01-19T19:38:02.989Z,2.80
2018-01-19T19:40:29.276Z,2.90
2018-01-19T19:42:55.825Z,2.70
2018-01-19T19:45:22.897Z,3.00
2018-01-19T19:47:49.169Z,2.90
2018-01-19T19:50:15.475Z,2.80
2018-01-19T19:52:41.774Z,2.40
2018-01-19T19:55:08.041Z,3.00
2018-01-19T19:57:35.209Z,3.00
2018-01-19T20:00:01.503Z,3.00
2018-01-19T20:02:28.582Z,3.00
2018-01-19T20:05:05.753Z,3.20
2018-01-19T20:07:32.743Z,2.90
2018-01-19T20:09:59.221Z,3.00
2018-01-19T20:12:25.525Z,2.80
2018-01-19T20:14:51.884Z,3.20
2018-01-19T20:17:19.608Z,2.80
2018-01-19T20:19:45.908Z,2.80
2018-01-19T20:25:06.733Z,3.00
2018-01-19T20:27:33.056Z,3.20
2018-01-19T20:29:59.341Z,2.80
2018-01-19T20:32:25.650Z,2.70
2018-01-19T20:34:51.970Z,2.90
2018-01-19T20:37:18.293Z,2.90
2018-01-19T20:39:44.693Z,2.90
2018-01-19T20:42:10.982Z,2.80
2018-01-19T20:44:37.400Z,2.90
2018-01-19T20:47:03.910Z,2.80
2018-01-19T20:49:30.288Z,2.50
2018-01-19T20:51:56.578Z,3.00
2018-01-19T20:54:22.842Z,2.70
2018-01-19T20:56:49.847Z,2.70
2018-01-19T20:59:16.302Z,2.70
2018-01-19T21:01:43.988Z,2.60
2018-01-19T21:04:10.266Z,2.70
2018-01-19T21:06:37.264Z,2.60
2018-01-19T21:09:03.639Z,2.50
2018-01-19T21:11:30.118Z,2.30
2018-01-19T21:13:57.358Z,2.50
2018-01-19T21:16:23.791Z,2.40
2018-01-19T21:18:50.877Z,2.30
2018-01-19T21:21:17.426Z,2.40
2018-01-19T21:23:43.808Z,2.00
2018-01-19T21:26:10.176Z,2.20
2018-01-19T21:28:37.273Z,2.30
2018-01-19T21:31:03.690Z,2.10
2018-01-19T21:33:30.956Z,2.50
2018-01-19T21:35:57.974Z,2.30
2018-01-19T21:38:24.339Z,2.10
2018-01-19T21:40:52.509Z,2.20
2018-01-19T21:43:19.105Z,2.20
2018-01-19T21:45:46.750Z,2.20
2018-01-19T21:48:13.856Z,2.10
2018-01-19T21:50:42.687Z,2.20
2018-01-19T21:53:09.912Z,2.30
2018-01-19T21:55:38.533Z,2.30
2018-01-19T21:58:16.043Z,2.30
2018-01-19T22:00:43.109Z,2.30
2018-01-19T22:03:09.484Z,2.40
2018-01-19T22:05:36.535Z,2.30
2018-01-19T22:08:02.960Z,2.00
2018-01-19T22:10:29.726Z,2.10
2018-01-19T22:12:56.109Z,2.00
2018-01-19T22:15:22.513Z,2.50
2018-01-19T22:17:48.834Z,2.00
2018-01-19T22:20:15.243Z,2.20
2018-01-19T22:22:44.239Z,2.20
2018-01-19T22:25:10.587Z,2.10
2018-01-19T22:27:36.964Z,2.40
2018-01-19T22:30:03.372Z,2.10
2018-01-19T22:32:30.494Z,2.00
2018-01-19T22:34:56.956Z,2.00
2018-01-19T22:37:23.357Z,2.10
2018-01-19T22:39:49.764Z,2.20
2018-01-19T22:42:16.178Z,2.10
2018-01-19T22:44:42.617Z,2.10
2018-01-19T22:47:09.009Z,2.40
2018-01-19T22:49:36.062Z,2.50
2018-01-19T22:52:02.389Z,2.50
2018-01-19T22:54:29.461Z,3.00
2018-01-19T22:56:56.510Z,2.60
2018-01-19T22:59:22.870Z,2.50
2018-01-19T23:01:49.333Z,2.50
2018-01-19T23:04:16.191Z,2.80
2018-01-19T23:06:42.643Z,2.70
2018-01-19T23:09:09.101Z,2.90
2018-01-19T23:11:35.597Z,3.10
2018-01-19T23:14:01.972Z,3.10
2018-01-19T23:16:28.780Z,2.80
2018-01-19T23:18:55.396Z,2.70
2018-01-19T23:21:23.007Z,2.90
2018-01-19T23:23:50.637Z,3.10
2018-01-19T23:28:50.016Z,3.40
2018-01-19T23:31:16.399Z,2.80
2018-01-19T23:33:42.998Z,3.20
2018-01-19T23:36:09.397Z,3.20
2018-01-19T23:38:36.558Z,3.20
2018-01-19T23:41:03.222Z,3.20
2018-01-19T23:43:30.045Z,3.30
2018-01-19T23:45:57.131Z,3.30
2018-01-19T23:48:24.660Z,3.30
2018-01-19T23:50:51.207Z,3.60
2018-01-19T23:53:18.174Z,3.40
2018-01-19T23:55:45.016Z,3.50
2018-01-19T23:58:11.425Z,3.20
